sensor_id;sensor_type;location;lat;lon;timestamp;pressure;altitude;pressure_sealevel;temperature;humidity
6032;BME280;3044;43.232;27.972;2023-08-01T00:01:56;45094.78;;;-143.84;83.64
6032;BME280;3044;43.232;27.972;2023-08-01T00:04:23;45077.63;;;-143.84;83.69
6032;BME280;3044;43.232;27.972;2023-08-01T00:06:50;45073.81;;;-143.84;83.95
6032;BME280;3044;43.232;27.972;2023-08-01T00:09:19;45098.56;;;-143.84;83.92
6032;BME280;3044;43.232;27.972;2023-08-01T00:11:46;45077.63;;;-143.84;84.17
6032;BME280;3044;43.232;27.972;2023-08-01T00:14:13;45098.56;;;-143.84;84.27
6032;BME280;3044;43.232;27.972;2023-08-01T00:16:40;45087.16;;;-143.84;84.50
6032;BME280;3044;43.232;27.972;2023-08-01T00:19:07;45083.34;;;-143.84;84.74
6032;BME280;3044;43.232;27.972;2023-08-01T00:21:34;45100.47;;;-143.84;85.06
6032;BME280;3044;43.232;27.972;2023-08-01T00:24:02;45094.78;;;-143.84;85.48
6032;BME280;3044;43.232;27.972;2023-08-01T00:26:31;45085.25;;;-143.84;85.69
6032;BME280;3044;43.232;27.972;2023-08-01T00:28:58;45087.16;;;-143.84;86.04
6032;BME280;3044;43.232;27.972;2023-08-01T00:31:25;45102.38;;;-143.84;86.06
6032;BME280;3044;43.232;27.972;2023-08-01T00:33:52;45083.34;;;-143.84;86.16
6032;BME280;3044;43.232;27.972;2023-08-01T00:36:19;45111.91;;;-143.84;86.24
6032;BME280;3044;43.232;27.972;2023-08-01T00:38:46;45104.28;;;-143.84;86.51
6032;BME280;3044;43.232;27.972;2023-08-01T00:41:14;45092.88;;;-143.84;86.88
6032;BME280;3044;43.232;27.972;2023-08-01T00:43:43;45092.88;;;-143.84;87.06
6032;BME280;3044;43.232;27.972;2023-08-01T00:46:10;45104.28;;;-143.84;87.35
6032;BME280;3044;43.232;27.972;2023-08-01T00:48:37;45102.38;;;-143.84;87.85
6032;BME280;3044;43.232;27.972;2023-08-01T00:51:05;45085.25;;;-143.84;87.80
6032;BME280;3044;43.232;27.972;2023-08-01T00:53:32;45130.94;;;-143.84;88.27
6032;BME280;3044;43.232;27.972;2023-08-01T00:55:59;45075.72;;;-143.84;88.43
6032;BME280;3044;43.232;27.972;2023-08-01T00:58:27;45096.66;;;-143.84;88.81
6032;BME280;3044;43.232;27.972;2023-08-01T01:00:55;45104.28;;;-143.84;89.13
6032;BME280;3044;43.232;27.972;2023-08-01T01:03:23;45071.91;;;-143.84;89.84
6032;BME280;3044;43.232;27.972;2023-08-01T01:06:01;45081.44;;;-143.84;89.91
6032;BME280;3044;43.232;27.972;2023-08-01T01:08:29;45089.06;;;-143.84;89.92
6032;BME280;3044;43.232;27.972;2023-08-01T01:10:56;45100.47;;;-143.84;90.20
6032;BME280;3044;43.232;27.972;2023-08-01T01:13:24;45098.56;;;-143.84;90.10
6032;BME280;3044;43.232;27.972;2023-08-01T01:15:51;45102.38;;;-143.84;90.54
6032;BME280;3044;43.232;27.972;2023-08-01T01:18:19;45100.47;;;-143.84;90.95
6032;BME280;3044;43.232;27.972;2023-08-01T01:20:48;45110.00;;;-143.84;90.97
6032;BME280;3044;43.232;27.972;2023-08-01T01:23:16;45110.00;;;-143.84;91.38
6032;BME280;3044;43.232;27.972;2023-08-01T01:25:45;45108.09;;;-143.84;91.32
6032;BME280;3044;43.232;27.972;2023-08-01T01:28:14;45104.28;;;-143.84;91.83
6032;BME280;3044;43.232;27.972;2023-08-01T01:30:42;45081.44;;;-143.84;91.89
6032;BME280;3044;43.232;27.972;2023-08-01T01:33:10;45102.38;;;-143.84;91.53
6032;BME280;3044;43.232;27.972;2023-08-01T01:35:37;45110.00;;;-143.84;91.79
6032;BME280;3044;43.232;27.972;2023-08-01T01:38:06;45094.78;;;-143.84;91.77
6032;BME280;3044;43.232;27.972;2023-08-01T01:40:33;45104.28;;;-143.84;91.83
6032;BME280;3044;43.232;27.972;2023-08-01T01:43:01;45106.19;;;-143.84;91.81
6032;BME280;3044;43.232;27.972;2023-08-01T01:45:28;45094.78;;;-143.84;91.28
6032;BME280;3044;43.232;27.972;2023-08-01T01:47:55;45108.09;;;-143.84;90.94
6032;BME280;3044;43.232;27.972;2023-08-01T01:50:22;45094.78;;;-143.84;90.63
6032;BME280;3044;43.232;27.972;2023-08-01T01:52:50;45106.19;;;-143.84;90.84
6032;BME280;3044;43.232;27.972;2023-08-01T01:55:18;45110.00;;;-143.84;90.43
6032;BME280;3044;43.232;27.972;2023-08-01T01:57:45;45117.63;;;-143.84;90.30
6032;BME280;3044;43.232;27.972;2023-08-01T02:00:13;45111.91;;;-143.84;89.90
6032;BME280;3044;43.232;27.972;2023-08-01T02:02:40;45129.03;;;-143.84;90.01
6032;BME280;3044;43.232;27.972;2023-08-01T02:05:07;45102.38;;;-143.84;89.70
6032;BME280;3044;43.232;27.972;2023-08-01T02:07:34;45089.06;;;-143.84;89.81
6032;BME280;3044;43.232;27.972;2023-08-01T02:10:02;45089.06;;;-143.84;89.58
6032;BME280;3044;43.232;27.972;2023-08-01T02:12:30;45121.44;;;-143.84;89.35
6032;BME280;3044;43.232;27.972;2023-08-01T02:14:57;45090.97;;;-143.84;88.92
6032;BME280;3044;43.232;27.972;2023-08-01T02:17:25;45096.66;;;-143.84;89.11
6032;BME280;3044;43.232;27.972;2023-08-01T02:19:52;45102.38;;;-143.84;88.98
6032;BME280;3044;43.232;27.972;2023-08-01T02:22:19;45104.28;;;-143.84;88.99
6032;BME280;3044;43.232;27.972;2023-08-01T02:24:46;45096.66;;;-143.84;88.81
6032;BME280;3044;43.232;27.972;2023-08-01T02:27:13;45100.47;;;-143.84;89.14
6032;BME280;3044;43.232;27.972;2023-08-01T02:29:42;45106.19;;;-143.84;89.02
6032;BME280;3044;43.232;27.972;2023-08-01T02:32:09;45094.78;;;-143.84;89.59
6032;BME280;3044;43.232;27.972;2023-08-01T02:34:37;45102.38;;;-143.84;89.46
6032;BME280;3044;43.232;27.972;2023-08-01T02:37:04;45110.00;;;-143.84;89.53
6032;BME280;3044;43.232;27.972;2023-08-01T02:39:32;45100.47;;;-143.84;89.53
6032;BME280;3044;43.232;27.972;2023-08-01T02:41:59;45108.09;;;-143.84;89.51
6032;BME280;3044;43.232;27.972;2023-08-01T02:44:26;45110.00;;;-143.84;89.32
6032;BME280;3044;43.232;27.972;2023-08-01T02:46:54;45129.03;;;-143.84;89.49
6032;BME280;3044;43.232;27.972;2023-08-01T02:49:22;45113.81;;;-143.84;89.33
6032;BME280;3044;43.232;27.972;2023-08-01T02:51:49;45125.22;;;-143.84;88.87
6032;BME280;3044;43.232;27.972;2023-08-01T02:54:16;45102.38;;;-143.84;88.70
6032;BME280;3044;43.232;27.972;2023-08-01T02:56:43;45100.47;;;-143.84;88.84
6032;BME280;3044;43.232;27.972;2023-08-01T02:59:10;45111.91;;;-143.84;88.98
6032;BME280;3044;43.232;27.972;2023-08-01T03:01:38;45123.34;;;-143.84;88.68
6032;BME280;3044;43.232;27.972;2023-08-01T03:04:07;45138.56;;;-143.84;88.96
6032;BME280;3044;43.232;27.972;2023-08-01T03:06:34;45110.00;;;-143.84;88.94
6032;BME280;3044;43.232;27.972;2023-08-01T03:09:01;45104.28;;;-143.84;89.41
6032;BME280;3044;43.232;27.972;2023-08-01T03:11:28;45125.22;;;-143.84;89.72
6032;BME280;3044;43.232;27.972;2023-08-01T03:13:55;45104.28;;;-143.84;89.92
6032;BME280;3044;43.232;27.972;2023-08-01T03:16:22;45098.56;;;-143.84;90.13
6032;BME280;3044;43.232;27.972;2023-08-01T03:18:49;45115.72;;;-143.84;90.13
6032;BME280;3044;43.232;27.972;2023-08-01T03:21:18;45113.81;;;-143.84;90.04
6032;BME280;3044;43.232;27.972;2023-08-01T03:23:45;45106.19;;;-143.84;89.84
6032;BME280;3044;43.232;27.972;2023-08-01T03:26:12;45110.00;;;-143.84;89.78
6032;BME280;3044;43.232;27.972;2023-08-01T03:28:41;45108.09;;;-143.84;89.64
6032;BME280;3044;43.232;27.972;2023-08-01T03:31:08;45115.72;;;-143.84;89.75
6032;BME280;3044;43.232;27.972;2023-08-01T03:33:35;45096.66;;;-143.84;89.54
6032;BME280;3044;43.232;27.972;2023-08-01T03:36:02;45102.38;;;-143.84;89.19
6032;BME280;3044;43.232;27.972;2023-08-01T03:38:31;45090.97;;;-143.84;88.81
6032;BME280;3044;43.232;27.972;2023-08-01T03:40:58;45083.34;;;-143.84;86.41
6032;BME280;3044;43.232;27.972;2023-08-01T03:43:25;45094.78;;;-143.84;84.32
6032;BME280;3044;43.232;27.972;2023-08-01T03:45:52;45090.97;;;-143.84;81.36
6032;BME280;3044;43.232;27.972;2023-08-01T03:48:19;45092.88;;;-143.84;77.68
6032;BME280;3044;43.232;27.972;2023-08-01T03:50:46;45087.16;;;-143.84;76.44
6032;BME280;3044;43.232;27.972;2023-08-01T03:53:14;45037.66;;;-143.84;73.67
6032;BME280;3044;43.232;27.972;2023-08-01T03:55:43;45079.53;;;-143.84;69.38
6032;BME280;3044;43.232;27.972;2023-08-01T03:58:11;45014.78;;;-143.84;66.15
6032;BME280;3044;43.232;27.972;2023-08-01T04:00:38;45052.88;;;-143.84;62.71
6032;BME280;3044;43.232;27.972;2023-08-01T04:03:05;45049.06;;;-143.84;63.10
6032;BME280;3044;43.232;27.972;2023-08-01T04:05:32;45087.16;;;-143.84;65.47
6032;BME280;3044;43.232;27.972;2023-08-01T04:07:59;45030.03;;;-143.84;68.22
6032;BME280;3044;43.232;27.972;2023-08-01T04:10:26;45045.25;;;-143.84;66.06
6032;BME280;3044;43.232;27.972;2023-08-01T04:12:55;45037.66;;;-143.84;63.93
6032;BME280;3044;43.232;27.972;2023-08-01T04:15:22;45031.94;;;-143.84;61.34
6032;BME280;3044;43.232;27.972;2023-08-01T04:17:49;45012.88;;;-143.84;59.18
6032;BME280;3044;43.232;27.972;2023-08-01T04:20:16;45039.53;;;-143.84;58.19
6032;BME280;3044;43.232;27.972;2023-08-01T04:22:43;45009.09;;;-143.84;57.31
6032;BME280;3044;43.232;27.972;2023-08-01T04:25:10;45001.47;;;-143.84;56.31
6032;BME280;3044;43.232;27.972;2023-08-01T04:27:37;45037.66;;;-143.84;54.82
6032;BME280;3044;43.232;27.972;2023-08-01T04:30:07;44995.75;;;-143.84;53.12
6032;BME280;3044;43.232;27.972;2023-08-01T04:32:34;45035.75;;;-143.84;52.30
6032;BME280;3044;43.232;27.972;2023-08-01T04:35:01;44995.75;;;-143.84;51.71
6032;BME280;3044;43.232;27.972;2023-08-01T04:37:28;45005.28;;;-143.84;51.43
6032;BME280;3044;43.232;27.972;2023-08-01T04:39:55;44984.31;;;-143.84;50.60
6032;BME280;3044;43.232;27.972;2023-08-01T04:42:22;45003.38;;;-143.84;49.82
6032;BME280;3044;43.232;27.972;2023-08-01T04:44:49;44997.66;;;-143.84;48.90
6032;BME280;3044;43.232;27.972;2023-08-01T04:47:19;44995.75;;;-143.84;48.71
6032;BME280;3044;43.232;27.972;2023-08-01T04:49:46;45005.28;;;-143.84;48.71
6032;BME280;3044;43.232;27.972;2023-08-01T04:52:13;45001.47;;;-143.84;48.61
6032;BME280;3044;43.232;27.972;2023-08-01T04:54:40;45007.19;;;-143.84;48.16
6032;BME280;3044;43.232;27.972;2023-08-01T04:57:07;44976.72;;;-143.84;47.83
6032;BME280;3044;43.232;27.972;2023-08-01T04:59:34;44969.09;;;-143.84;47.57
6032;BME280;3044;43.232;27.972;2023-08-01T05:02:01;44972.91;;;-143.84;47.20
6032;BME280;3044;43.232;27.972;2023-08-01T05:04:30;44982.41;;;-143.84;46.25
6032;BME280;3044;43.232;27.972;2023-08-01T05:06:57;44986.22;;;-143.84;46.23
6032;BME280;3044;43.232;27.972;2023-08-01T05:09:24;44972.91;;;-143.84;45.58
6032;BME280;3044;43.232;27.972;2023-08-01T05:11:51;44986.22;;;-143.84;45.58
6032;BME280;3044;43.232;27.972;2023-08-01T05:14:18;44950.06;;;-143.84;44.98
6032;BME280;3044;43.232;27.972;2023-08-01T05:16:46;44976.72;;;-143.84;45.18
6032;BME280;3044;43.232;27.972;2023-08-01T05:19:13;44971.00;;;-143.84;45.10
6032;BME280;3044;43.232;27.972;2023-08-01T05:21:41;44927.19;;;-143.84;44.49
6032;BME280;3044;43.232;27.972;2023-08-01T05:24:08;44974.81;;;-143.84;44.47
6032;BME280;3044;43.232;27.972;2023-08-01T05:26:36;44967.19;;;-143.84;44.07
6032;BME280;3044;43.232;27.972;2023-08-01T05:29:03;44955.75;;;-143.84;44.75
6032;BME280;3044;43.232;27.972;2023-08-01T05:31:30;44988.13;;;-143.84;44.38
6032;BME280;3044;43.232;27.972;2023-08-01T05:33:57;44942.44;;;-143.84;44.33
6032;BME280;3044;43.232;27.972;2023-08-01T05:36:24;44944.34;;;-143.84;43.69
6032;BME280;3044;43.232;27.972;2023-08-01T05:38:53;44921.50;;;-143.84;42.76
6032;BME280;3044;43.232;27.972;2023-08-01T05:41:20;44919.59;;;-143.84;42.44
6032;BME280;3044;43.232;27.972;2023-08-01T05:43:48;44946.25;;;-143.84;42.93
6032;BME280;3044;43.232;27.972;2023-08-01T05:46:15;44927.19;;;-143.84;42.14
6032;BME280;3044;43.232;27.972;2023-08-01T05:48:43;44942.44;;;-143.84;41.38
6032;BME280;3044;43.232;27.972;2023-08-01T05:51:10;44923.41;;;-143.84;41.96
6032;BME280;3044;43.232;27.972;2023-08-01T05:53:37;44915.78;;;-143.84;40.97
6032;BME280;3044;43.232;27.972;2023-08-01T05:56:05;44923.41;;;-143.84;40.94
6032;BME280;3044;43.232;27.972;2023-08-01T05:58:33;44915.78;;;-143.84;40.86
6032;BME280;3044;43.232;27.972;2023-08-01T06:01:00;44931.00;;;-143.84;40.09
6032;BME280;3044;43.232;27.972;2023-08-01T06:03:27;44900.53;;;-143.84;40.00
6032;BME280;3044;43.232;27.972;2023-08-01T06:05:54;44957.66;;;-143.84;39.42
6032;BME280;3044;43.232;27.972;2023-08-01T06:08:21;44889.13;;;-143.84;39.02
6032;BME280;3044;43.232;27.972;2023-08-01T06:10:48;44898.66;;;-143.84;39.07
6032;BME280;3044;43.232;27.972;2023-08-01T06:13:17;44887.22;;;-143.84;39.12
6032;BME280;3044;43.232;27.972;2023-08-01T06:15:45;44883.41;;;-143.84;38.85
6032;BME280;3044;43.232;27.972;2023-08-01T06:18:12;44885.31;;;-143.84;39.00
6032;BME280;3044;43.232;27.972;2023-08-01T06:20:39;44891.03;;;-143.84;38.48
6032;BME280;3044;43.232;27.972;2023-08-01T06:23:06;44911.97;;;-143.84;38.78
6032;BME280;3044;43.232;27.972;2023-08-01T06:25:33;44883.41;;;-143.84;40.16
6032;BME280;3044;43.232;27.972;2023-08-01T06:28:00;44908.16;;;-143.84;38.81
6032;BME280;3044;43.232;27.972;2023-08-01T06:30:29;44900.53;;;-143.84;38.38
6032;BME280;3044;43.232;27.972;2023-08-01T06:32:56;44892.94;;;-143.84;39.16
6032;BME280;3044;43.232;27.972;2023-08-01T06:35:23;44919.59;;;-143.84;38.67
6032;BME280;3044;43.232;27.972;2023-08-01T06:37:50;44902.44;;;-143.84;38.89
6032;BME280;3044;43.232;27.972;2023-08-01T06:40:18;44900.53;;;-143.84;39.20
6032;BME280;3044;43.232;27.972;2023-08-01T06:42:45;44910.06;;;-143.84;39.00
6032;BME280;3044;43.232;27.972;2023-08-01T06:45:12;44911.97;;;-143.84;39.70
6032;BME280;3044;43.232;27.972;2023-08-01T06:47:40;44904.34;;;-143.84;38.02
6032;BME280;3044;43.232;27.972;2023-08-01T06:50:08;44879.59;;;-143.84;38.52
6032;BME280;3044;43.232;27.972;2023-08-01T06:52:35;44902.44;;;-143.84;39.03
6032;BME280;3044;43.232;27.972;2023-08-01T06:55:02;44904.34;;;-143.84;39.18
6032;BME280;3044;43.232;27.972;2023-08-01T06:57:30;44896.75;;;-143.84;39.72
6032;BME280;3044;43.232;27.972;2023-08-01T06:59:57;44870.09;;;-143.84;38.75
6032;BME280;3044;43.232;27.972;2023-08-01T07:02:24;44873.88;;;-143.84;37.38
6032;BME280;3044;43.232;27.972;2023-08-01T07:04:53;44885.31;;;-143.84;37.41
6032;BME280;3044;43.232;27.972;2023-08-01T07:07:20;44873.88;;;-143.84;38.12
6032;BME280;3044;43.232;27.972;2023-08-01T07:09:47;44902.44;;;-143.84;38.67
6032;BME280;3044;43.232;27.972;2023-08-01T07:12:14;44898.66;;;-143.84;39.15
6032;BME280;3044;43.232;27.972;2023-08-01T07:14:41;44902.44;;;-143.84;40.07
6032;BME280;3044;43.232;27.972;2023-08-01T07:17:09;44913.88;;;-143.84;40.51
6032;BME280;3044;43.232;27.972;2023-08-01T07:19:36;44929.09;;;-143.84;41.07
6032;BME280;3044;43.232;27.972;2023-08-01T07:22:05;44917.69;;;-143.84;41.25
6032;BME280;3044;43.232;27.972;2023-08-01T07:24:32;44923.41;;;-143.84;41.29
6032;BME280;3044;43.232;27.972;2023-08-01T07:26:59;44913.88;;;-143.84;42.42
6032;BME280;3044;43.232;27.972;2023-08-01T07:29:26;44950.06;;;-143.84;42.65
6032;BME280;3044;43.232;27.972;2023-08-01T07:31:53;44925.31;;;-143.84;42.61
6032;BME280;3044;43.232;27.972;2023-08-01T07:34:20;44934.81;;;-143.84;42.71
6032;BME280;3044;43.232;27.972;2023-08-01T07:36:48;44917.69;;;-143.84;44.21
6032;BME280;3044;43.232;27.972;2023-08-01T07:39:17;44948.16;;;-143.84;45.03
6032;BME280;3044;43.232;27.972;2023-08-01T07:41:44;44934.81;;;-143.84;44.02
6032;BME280;3044;43.232;27.972;2023-08-01T07:44:11;44921.50;;;-143.84;44.39
6032;BME280;3044;43.232;27.972;2023-08-01T07:46:38;44969.09;;;-143.84;43.92
6032;BME280;3044;43.232;27.972;2023-08-01T07:49:05;44936.72;;;-143.84;44.90
6032;BME280;3044;43.232;27.972;2023-08-01T07:51:32;44938.63;;;-143.84;44.41
6032;BME280;3044;43.232;27.972;2023-08-01T07:54:00;44946.25;;;-143.84;45.21
6032;BME280;3044;43.232;27.972;2023-08-01T07:56:28;44936.72;;;-143.84;44.69
6032;BME280;3044;43.232;27.972;2023-08-01T07:58:55;44946.25;;;-143.84;46.01
6032;BME280;3044;43.232;27.972;2023-08-01T08:01:22;44976.72;;;-143.84;47.06
6032;BME280;3044;43.232;27.972;2023-08-01T08:03:49;44978.63;;;-143.84;47.09
6032;BME280;3044;43.232;27.972;2023-08-01T08:06:17;44953.88;;;-143.84;48.01
6032;BME280;3044;43.232;27.972;2023-08-01T08:08:46;44955.75;;;-143.84;47.52
6032;BME280;3044;43.232;27.972;2023-08-01T08:11:13;44976.72;;;-143.84;48.68
6032;BME280;3044;43.232;27.972;2023-08-01T08:13:43;44990.03;;;-143.84;48.20
6032;BME280;3044;43.232;27.972;2023-08-01T08:16:10;44982.41;;;-143.84;49.76
6032;BME280;3044;43.232;27.972;2023-08-01T08:18:37;44961.47;;;-143.84;49.68
6032;BME280;3044;43.232;27.972;2023-08-01T08:21:04;44944.34;;;-143.84;50.55
6032;BME280;3044;43.232;27.972;2023-08-01T08:23:31;44946.25;;;-143.84;49.36
6032;BME280;3044;43.232;27.972;2023-08-01T08:25:58;44961.47;;;-143.84;49.10
6032;BME280;3044;43.232;27.972;2023-08-01T08:28:30;44982.41;;;-143.84;51.02
6032;BME280;3044;43.232;27.972;2023-08-01T08:31:00;44969.09;;;-143.84;49.62
6032;BME280;3044;43.232;27.972;2023-08-01T08:33:27;44961.47;;;-143.84;49.65
6032;BME280;3044;43.232;27.972;2023-08-01T08:35:54;44959.56;;;-143.84;49.12
6032;BME280;3044;43.232;27.972;2023-08-01T08:38:21;44950.06;;;-143.84;48.71
6032;BME280;3044;43.232;27.972;2023-08-01T08:40:56;44974.81;;;-143.84;49.99
6032;BME280;3044;43.232;27.972;2023-08-01T08:43:27;44957.66;;;-143.84;52.61
6032;BME280;3044;43.232;27.972;2023-08-01T08:45:57;44961.47;;;-143.84;50.48
6032;BME280;3044;43.232;27.972;2023-08-01T08:48:28;44963.38;;;-143.84;50.63
6032;BME280;3044;43.232;27.972;2023-08-01T08:50:57;44997.66;;;-143.84;54.89
6032;BME280;3044;43.232;27.972;2023-08-01T08:53:25;44978.63;;;-143.84;52.70
6032;BME280;3044;43.232;27.972;2023-08-01T08:55:52;44997.66;;;-143.84;52.46
6032;BME280;3044;43.232;27.972;2023-08-01T08:58:20;44984.31;;;-143.84;52.21
6032;BME280;3044;43.232;27.972;2023-08-01T09:00:47;44997.66;;;-143.84;52.81
6032;BME280;3044;43.232;27.972;2023-08-01T09:03:15;44990.03;;;-143.84;53.32
6032;BME280;3044;43.232;27.972;2023-08-01T09:05:49;44976.72;;;-143.84;54.09
6032;BME280;3044;43.232;27.972;2023-08-01T09:08:19;45003.38;;;-143.84;53.77
6032;BME280;3044;43.232;27.972;2023-08-01T09:10:47;44997.66;;;-143.84;53.02
6032;BME280;3044;43.232;27.972;2023-08-01T09:13:14;44944.34;;;-143.84;52.89
6032;BME280;3044;43.232;27.972;2023-08-01T09:15:42;44986.22;;;-143.84;53.26
6032;BME280;3044;43.232;27.972;2023-08-01T09:18:10;44972.91;;;-143.84;53.40
6032;BME280;3044;43.232;27.972;2023-08-01T09:20:46;45010.97;;;-143.84;53.82
6032;BME280;3044;43.232;27.972;2023-08-01T09:23:14;44976.72;;;-143.84;53.80
6032;BME280;3044;43.232;27.972;2023-08-01T09:25:41;44993.84;;;-143.84;53.81
6032;BME280;3044;43.232;27.972;2023-08-01T09:28:16;44963.38;;;-143.84;52.04
6032;BME280;3044;43.232;27.972;2023-08-01T09:30:48;44980.53;;;-143.84;50.59
6032;BME280;3044;43.232;27.972;2023-08-01T09:33:16;44993.84;;;-143.84;51.67
6032;BME280;3044;43.232;27.972;2023-08-01T09:35:43;44999.56;;;-143.84;50.81
6032;BME280;3044;43.232;27.972;2023-08-01T09:38:14;44988.13;;;-143.84;51.32
6032;BME280;3044;43.232;27.972;2023-08-01T09:40:42;44967.19;;;-143.84;50.97
6032;BME280;3044;43.232;27.972;2023-08-01T09:43:10;44991.94;;;-143.84;50.70
6032;BME280;3044;43.232;27.972;2023-08-01T09:45:37;44986.22;;;-143.84;50.19
6032;BME280;3044;43.232;27.972;2023-08-01T09:48:04;44976.72;;;-143.84;50.05
6032;BME280;3044;43.232;27.972;2023-08-01T09:50:32;44959.56;;;-143.84;52.29
6032;BME280;3044;43.232;27.972;2023-08-01T09:53:07;44978.63;;;-143.84;50.24
6032;BME280;3044;43.232;27.972;2023-08-01T09:55:37;44976.72;;;-143.84;49.54
6032;BME280;3044;43.232;27.972;2023-08-01T09:58:07;44950.06;;;-143.84;50.92
6032;BME280;3044;43.232;27.972;2023-08-01T10:00:36;44961.47;;;-143.84;49.50
6032;BME280;3044;43.232;27.972;2023-08-01T10:03:04;44978.63;;;-143.84;49.35
6032;BME280;3044;43.232;27.972;2023-08-01T10:05:34;44980.53;;;-143.84;50.76
6032;BME280;3044;43.232;27.972;2023-08-01T10:08:02;44980.53;;;-143.84;50.54
6032;BME280;3044;43.232;27.972;2023-08-01T10:10:30;44971.00;;;-143.84;51.04
6032;BME280;3044;43.232;27.972;2023-08-01T10:12:59;44978.63;;;-143.84;51.21
6032;BME280;3044;43.232;27.972;2023-08-01T10:15:28;44974.81;;;-143.84;50.28
6032;BME280;3044;43.232;27.972;2023-08-01T10:17:56;44963.38;;;-143.84;49.95
6032;BME280;3044;43.232;27.972;2023-08-01T10:20:24;45014.78;;;-143.84;50.13
6032;BME280;3044;43.232;27.972;2023-08-01T10:22:52;44986.22;;;-143.84;53.44
6032;BME280;3044;43.232;27.972;2023-08-01T10:25:20;44978.63;;;-143.84;53.88
6032;BME280;3044;43.232;27.972;2023-08-01T10:27:59;44986.22;;;-143.84;52.87
6032;BME280;3044;43.232;27.972;2023-08-01T10:30:27;44990.03;;;-143.84;54.01
6032;BME280;3044;43.232;27.972;2023-08-01T10:32:55;44980.53;;;-143.84;52.44
6032;BME280;3044;43.232;27.972;2023-08-01T10:35:35;44967.19;;;-143.84;52.13
6032;BME280;3044;43.232;27.972;2023-08-01T10:38:07;44997.66;;;-143.84;51.56
6032;BME280;3044;43.232;27.972;2023-08-01T10:40:36;44978.63;;;-143.84;51.70
6032;BME280;3044;43.232;27.972;2023-08-01T10:43:05;44967.19;;;-143.84;51.79
6032;BME280;3044;43.232;27.972;2023-08-01T10:45:32;44984.31;;;-143.84;51.16
6032;BME280;3044;43.232;27.972;2023-08-01T10:48:06;44980.53;;;-143.84;51.19
6032;BME280;3044;43.232;27.972;2023-08-01T10:50:34;45014.78;;;-143.84;52.11
6032;BME280;3044;43.232;27.972;2023-08-01T10:53:06;45009.09;;;-143.84;52.84
6032;BME280;3044;43.232;27.972;2023-08-01T10:55:41;44993.84;;;-143.84;53.46
6032;BME280;3044;43.232;27.972;2023-08-01T10:58:10;44986.22;;;-143.84;52.97
6032;BME280;3044;43.232;27.972;2023-08-01T11:00:38;45003.38;;;-143.84;51.87
6032;BME280;3044;43.232;27.972;2023-08-01T11:03:05;45007.19;;;-143.84;53.91
6032;BME280;3044;43.232;27.972;2023-08-01T11:05:32;45009.09;;;-143.84;55.78
6032;BME280;3044;43.232;27.972;2023-08-01T11:08:01;44990.03;;;-143.84;53.12
6032;BME280;3044;43.232;27.972;2023-08-01T11:10:29;44991.94;;;-143.84;55.20
6032;BME280;3044;43.232;27.972;2023-08-01T11:12:57;44982.41;;;-143.84;56.32
6032;BME280;3044;43.232;27.972;2023-08-01T11:15:26;44993.84;;;-143.84;52.93
6032;BME280;3044;43.232;27.972;2023-08-01T11:17:55;44978.63;;;-143.84;52.73
6032;BME280;3044;43.232;27.972;2023-08-01T11:20:24;45007.19;;;-143.84;53.48
6032;BME280;3044;43.232;27.972;2023-08-01T11:22:54;44988.13;;;-143.84;52.65
6032;BME280;3044;43.232;27.972;2023-08-01T11:25:32;44976.72;;;-143.84;53.44
6032;BME280;3044;43.232;27.972;2023-08-01T11:28:03;44993.84;;;-143.84;52.84
6032;BME280;3044;43.232;27.972;2023-08-01T11:30:32;45003.38;;;-143.84;54.09
6032;BME280;3044;43.232;27.972;2023-08-01T11:33:01;44995.75;;;-143.84;54.60
6032;BME280;3044;43.232;27.972;2023-08-01T11:35:30;44997.66;;;-143.84;56.03
6032;BME280;3044;43.232;27.972;2023-08-01T11:37:58;44995.75;;;-143.84;54.56
6032;BME280;3044;43.232;27.972;2023-08-01T11:40:25;44984.31;;;-143.84;54.92
6032;BME280;3044;43.232;27.972;2023-08-01T11:42:57;44972.91;;;-143.84;54.52
6032;BME280;3044;43.232;27.972;2023-08-01T11:45:24;44984.31;;;-143.84;53.92
6032;BME280;3044;43.232;27.972;2023-08-01T11:47:53;45018.59;;;-143.84;56.93
6032;BME280;3044;43.232;27.972;2023-08-01T11:50:21;45012.88;;;-143.84;57.31
6032;BME280;3044;43.232;27.972;2023-08-01T11:52:49;45010.97;;;-143.84;57.42
6032;BME280;3044;43.232;27.972;2023-08-01T11:55:21;45009.09;;;-143.84;61.37
6032;BME280;3044;43.232;27.972;2023-08-01T11:57:53;44976.72;;;-143.84;59.04
6032;BME280;3044;43.232;27.972;2023-08-01T12:00:22;45016.69;;;-143.84;60.31
6032;BME280;3044;43.232;27.972;2023-08-01T12:02:49;45014.78;;;-143.84;61.13
6032;BME280;3044;43.232;27.972;2023-08-01T12:05:27;45014.78;;;-143.84;61.15
6032;BME280;3044;43.232;27.972;2023-08-01T12:07:54;45009.09;;;-143.84;61.49
6032;BME280;3044;43.232;27.972;2023-08-01T12:10:21;45005.28;;;-143.84;61.18
6032;BME280;3044;43.232;27.972;2023-08-01T12:12:49;44972.91;;;-143.84;60.41
6032;BME280;3044;43.232;27.972;2023-08-01T12:15:16;45016.69;;;-143.84;60.05
6032;BME280;3044;43.232;27.972;2023-08-01T12:17:44;45024.31;;;-143.84;60.02
6032;BME280;3044;43.232;27.972;2023-08-01T12:20:11;45014.78;;;-143.84;62.00
6032;BME280;3044;43.232;27.972;2023-08-01T12:22:40;45001.47;;;-143.84;61.24
6032;BME280;3044;43.232;27.972;2023-08-01T12:25:08;44988.13;;;-143.84;60.24
6032;BME280;3044;43.232;27.972;2023-08-01T12:27:35;44995.75;;;-143.84;59.57
6032;BME280;3044;43.232;27.972;2023-08-01T12:30:02;45012.88;;;-143.84;59.60
6032;BME280;3044;43.232;27.972;2023-08-01T12:32:30;45039.53;;;-143.84;60.36
6032;BME280;3044;43.232;27.972;2023-08-01T12:34:57;44988.13;;;-143.84;60.71
6032;BME280;3044;43.232;27.972;2023-08-01T12:37:24;45039.53;;;-143.84;60.35
6032;BME280;3044;43.232;27.972;2023-08-01T12:39:53;45003.38;;;-143.84;60.87
6032;BME280;3044;43.232;27.972;2023-08-01T12:42:20;45018.59;;;-143.84;62.77
6032;BME280;3044;43.232;27.972;2023-08-01T12:44:47;45022.41;;;-143.84;59.49
6032;BME280;3044;43.232;27.972;2023-08-01T12:47:14;45024.31;;;-143.84;62.75
6032;BME280;3044;43.232;27.972;2023-08-01T12:49:41;45028.13;;;-143.84;64.85
6032;BME280;3044;43.232;27.972;2023-08-01T12:52:08;45014.78;;;-143.84;62.65
6032;BME280;3044;43.232;27.972;2023-08-01T12:54:35;44993.84;;;-143.84;63.77